sensor_id;sensor_type;location;lat;lon;timestamp;P1;durP1;ratioP1;P2;durP2;ratioP2
23058;SDS011;30585;51.502;7.218;2023-08-08T00:01:55;5.55;;;2.17;;
23058;SDS011;30585;51.502;7.218;2023-08-08T00:04:23;3.00;;;1.92;;
23058;SDS011;30585;51.502;7.218;2023-08-08T00:06:51;3.40;;;1.85;;
23058;SDS011;30585;51.502;7.218;2023-08-08T00:09:19;5.25;;;2.30;;
23058;SDS011;30585;51.502;7.218;2023-08-08T00:11:48;7.97;;;1.90;;
23058;SDS011;30585;51.502;7.218;2023-08-08T00:14:16;2.97;;;1.92;;
23058;SDS011;30585;51.502;7.218;2023-08-08T00:16:44;5.32;;;1.85;;
23058;SDS011;30585;51.502;7.218;2023-08-08T00:19:11;1.98;;;1.60;;
23058;SDS011;30585;51.502;7.218;2023-08-08T00:21:39;3.30;;;1.67;;
23058;SDS011;30585;51.502;7.218;2023-08-08T00:24:07;5.55;;;1.70;;
23058;SDS011;30585;51.502;7.218;2023-08-08T00:26:35;1.83;;;1.50;;
23058;SDS011;30585;51.502;7.218;2023-08-08T00:29:04;3.45;;;2.10;;
23058;SDS011;30585;51.502;7.218;2023-08-08T00:31:32;3.47;;;1.95;;
23058;SDS011;30585;51.502;7.218;2023-08-08T00:34:00;3.17;;;1.77;;
23058;SDS011;30585;51.502;7.218;2023-08-08T00:36:28;2.92;;;1.90;;
23058;SDS011;30585;51.502;7.218;2023-08-08T00:38:56;2.90;;;1.70;;
23058;SDS011;30585;51.502;7.218;2023-08-08T00:41:25;5.88;;;1.60;;
23058;SDS011;30585;51.502;7.218;2023-08-08T00:43:53;1.83;;;1.70;;
23058;SDS011;30585;51.502;7.218;2023-08-08T00:46:22;3.40;;;1.60;;
23058;SDS011;30585;51.502;7.218;2023-08-08T00:48:51;4.22;;;1.73;;
23058;SDS011;30585;51.502;7.218;2023-08-08T00:51:19;2.33;;;1.80;;
23058;SDS011;30585;51.502;7.218;2023-08-08T00:53:47;3.30;;;1.85;;
23058;SDS011;30585;51.502;7.218;2023-08-08T00:56:17;1.83;;;1.60;;
23058;SDS011;30585;51.502;7.218;2023-08-08T00:58:45;2.90;;;1.80;;
23058;SDS011;30585;51.502;7.218;2023-08-08T01:01:13;3.00;;;1.75;;
23058;SDS011;30585;51.502;7.218;2023-08-08T01:03:42;3.67;;;1.60;;
23058;SDS011;30585;51.502;7.218;2023-08-08T01:06:11;1.90;;;1.58;;
23058;SDS011;30585;51.502;7.218;2023-08-08T01:08:45;3.90;;;1.75;;
23058;SDS011;30585;51.502;7.218;2023-08-08T01:11:18;5.82;;;1.70;;
23058;SDS011;30585;51.502;7.218;2023-08-08T01:13:46;4.15;;;1.52;;
23058;SDS011;30585;51.502;7.218;2023-08-08T01:16:14;3.58;;;1.65;;
23058;SDS011;30585;51.502;7.218;2023-08-08T01:18:44;3.08;;;1.85;;
23058;SDS011;30585;51.502;7.218;2023-08-08T01:21:15;3.13;;;1.85;;
23058;SDS011;30585;51.502;7.218;2023-08-08T01:23:45;2.95;;;1.80;;
23058;SDS011;30585;51.502;7.218;2023-08-08T01:26:18;3.33;;;1.80;;
23058;SDS011;30585;51.502;7.218;2023-08-08T01:28:47;3.92;;;1.98;;
23058;SDS011;30585;51.502;7.218;2023-08-08T01:31:15;2.55;;;2.03;;
23058;SDS011;30585;51.502;7.218;2023-08-08T01:33:43;5.50;;;2.38;;
23058;SDS011;30585;51.502;7.218;2023-08-08T01:36:12;6.60;;;2.50;;
23058;SDS011;30585;51.502;7.218;2023-08-08T01:38:47;3.72;;;2.10;;
23058;SDS011;30585;51.502;7.218;2023-08-08T01:41:20;2.42;;;1.83;;
23058;SDS011;30585;51.502;7.218;2023-08-08T01:43:50;3.42;;;1.95;;
23058;SDS011;30585;51.502;7.218;2023-08-08T01:46:19;2.90;;;2.15;;
23058;SDS011;30585;51.502;7.218;2023-08-08T01:48:47;5.72;;;2.08;;
23058;SDS011;30585;51.502;7.218;2023-08-08T01:51:15;4.32;;;2.97;;
23058;SDS011;30585;51.502;7.218;2023-08-08T01:53:43;5.28;;;2.58;;
23058;SDS011;30585;51.502;7.218;2023-08-08T01:56:11;5.03;;;2.17;;
23058;SDS011;30585;51.502;7.218;2023-08-08T01:58:40;5.38;;;2.25;;
23058;SDS011;30585;51.502;7.218;2023-08-08T02:01:08;4.90;;;2.42;;
23058;SDS011;30585;51.502;7.218;2023-08-08T02:03:35;4.43;;;2.25;;
23058;SDS011;30585;51.502;7.218;2023-08-08T02:06:03;6.75;;;2.30;;
23058;SDS011;30585;51.502;7.218;2023-08-08T02:08:31;4.97;;;2.33;;
23058;SDS011;30585;51.502;7.218;2023-08-08T02:10:59;4.93;;;2.35;;
23058;SDS011;30585;51.502;7.218;2023-08-08T02:13:27;5.30;;;2.15;;
23058;SDS011;30585;51.502;7.218;2023-08-08T02:15:56;3.75;;;1.92;;
23058;SDS011;30585;51.502;7.218;2023-08-08T02:18:24;2.72;;;2.00;;
23058;SDS011;30585;51.502;7.218;2023-08-08T02:20:52;4.97;;;2.40;;
23058;SDS011;30585;51.502;7.218;2023-08-08T02:23:19;4.80;;;2.80;;
23058;SDS011;30585;51.502;7.218;2023-08-08T02:25:47;4.25;;;2.20;;
23058;SDS011;30585;51.502;7.218;2023-08-08T02:28:15;4.53;;;2.20;;
23058;SDS011;30585;51.502;7.218;2023-08-08T02:30:43;4.97;;;2.35;;
23058;SDS011;30585;51.502;7.218;2023-08-08T02:33:13;6.00;;;2.70;;
23058;SDS011;30585;51.502;7.218;2023-08-08T02:35:40;3.05;;;2.40;;
23058;SDS011;30585;51.502;7.218;2023-08-08T02:38:08;5.78;;;2.13;;
23058;SDS011;30585;51.502;7.218;2023-08-08T02:40:36;3.38;;;2.20;;
23058;SDS011;30585;51.502;7.218;2023-08-08T02:43:05;5.05;;;1.90;;
23058;SDS011;30585;51.502;7.218;2023-08-08T02:45:32;4.45;;;2.53;;
23058;SDS011;30585;51.502;7.218;2023-08-08T02:48:00;2.92;;;2.40;;
23058;SDS011;30585;51.502;7.218;2023-08-08T02:50:29;3.40;;;2.00;;
23058;SDS011;30585;51.502;7.218;2023-08-08T02:52:57;3.55;;;2.03;;
23058;SDS011;30585;51.502;7.218;2023-08-08T02:55:25;3.97;;;2.03;;
23058;SDS011;30585;51.502;7.218;2023-08-08T02:57:53;4.50;;;2.38;;
23058;SDS011;30585;51.502;7.218;2023-08-08T03:00:21;3.78;;;2.03;;
23058;SDS011;30585;51.502;7.218;2023-08-08T03:02:49;3.50;;;2.30;;
23058;SDS011;30585;51.502;7.218;2023-08-08T03:05:16;3.65;;;2.28;;
23058;SDS011;30585;51.502;7.218;2023-08-08T03:07:46;3.03;;;2.20;;
23058;SDS011;30585;51.502;7.218;2023-08-08T03:10:12;4.35;;;2.30;;
23058;SDS011;30585;51.502;7.218;2023-08-08T03:12:40;2.80;;;2.13;;
23058;SDS011;30585;51.502;7.218;2023-08-08T03:15:09;5.13;;;2.47;;
23058;SDS011;30585;51.502;7.218;2023-08-08T03:17:38;4.65;;;2.45;;
23058;SDS011;30585;51.502;7.218;2023-08-08T03:20:12;3.17;;;2.50;;
23058;SDS011;30585;51.502;7.218;2023-08-08T03:22:43;3.95;;;2.65;;
23058;SDS011;30585;51.502;7.218;2023-08-08T03:25:12;4.07;;;2.60;;
23058;SDS011;30585;51.502;7.218;2023-08-08T03:27:41;3.85;;;2.22;;
23058;SDS011;30585;51.502;7.218;2023-08-08T03:30:09;4.93;;;2.63;;
23058;SDS011;30585;51.502;7.218;2023-08-08T03:32:37;4.93;;;2.45;;
23058;SDS011;30585;51.502;7.218;2023-08-08T03:35:08;8.75;;;3.03;;
23058;SDS011;30585;51.502;7.218;2023-08-08T03:37:36;4.00;;;2.97;;
23058;SDS011;30585;51.502;7.218;2023-08-08T03:40:05;7.63;;;3.22;;
23058;SDS011;30585;51.502;7.218;2023-08-08T03:42:35;6.28;;;2.72;;
23058;SDS011;30585;51.502;7.218;2023-08-08T03:45:03;5.32;;;3.03;;
23058;SDS011;30585;51.502;7.218;2023-08-08T03:47:32;4.03;;;2.78;;
23058;SDS011;30585;51.502;7.218;2023-08-08T03:50:00;6.28;;;2.83;;
23058;SDS011;30585;51.502;7.218;2023-08-08T03:52:28;8.02;;;3.00;;
23058;SDS011;30585;51.502;7.218;2023-08-08T03:54:56;7.03;;;3.55;;
23058;SDS011;30585;51.502;7.218;2023-08-08T03:57:29;6.65;;;4.10;;
23058;SDS011;30585;51.502;7.218;2023-08-08T03:59:58;4.10;;;3.35;;
23058;SDS011;30585;51.502;7.218;2023-08-08T04:02:30;7.45;;;3.60;;
23058;SDS011;30585;51.502;7.218;2023-08-08T04:04:58;7.53;;;3.55;;
23058;SDS011;30585;51.502;7.218;2023-08-08T04:07:25;8.63;;;4.15;;
23058;SDS011;30585;51.502;7.218;2023-08-08T04:09:53;9.55;;;3.95;;
23058;SDS011;30585;51.502;7.218;2023-08-08T04:12:21;4.53;;;3.13;;
23058;SDS011;30585;51.502;7.218;2023-08-08T04:14:49;12.65;;;3.90;;
23058;SDS011;30585;51.502;7.218;2023-08-08T04:17:18;8.90;;;3.90;;
23058;SDS011;30585;51.502;7.218;2023-08-08T04:19:46;6.00;;;3.70;;
23058;SDS011;30585;51.502;7.218;2023-08-08T04:22:14;6.60;;;3.78;;
23058;SDS011;30585;51.502;7.218;2023-08-08T04:24:42;6.20;;;3.13;;
23058;SDS011;30585;51.502;7.218;2023-08-08T04:27:10;5.95;;;3.65;;
23058;SDS011;30585;51.502;7.218;2023-08-08T04:29:38;7.18;;;3.83;;
23058;SDS011;30585;51.502;7.218;2023-08-08T04:32:06;5.75;;;3.45;;
23058;SDS011;30585;51.502;7.218;2023-08-08T04:34:35;6.88;;;3.80;;
23058;SDS011;30585;51.502;7.218;2023-08-08T04:37:03;6.03;;;3.42;;
23058;SDS011;30585;51.502;7.218;2023-08-08T04:39:31;7.00;;;3.78;;
23058;SDS011;30585;51.502;7.218;2023-08-08T04:41:59;10.82;;;3.88;;
23058;SDS011;30585;51.502;7.218;2023-08-08T04:44:27;10.55;;;4.40;;
23058;SDS011;30585;51.502;7.218;2023-08-08T04:46:55;8.15;;;4.13;;
23058;SDS011;30585;51.502;7.218;2023-08-08T04:49:23;7.63;;;4.50;;
23058;SDS011;30585;51.502;7.218;2023-08-08T04:51:52;12.02;;;3.67;;
23058;SDS011;30585;51.502;7.218;2023-08-08T04:54:20;9.90;;;4.25;;
23058;SDS011;30585;51.502;7.218;2023-08-08T04:56:48;8.40;;;4.25;;
23058;SDS011;30585;51.502;7.218;2023-08-08T04:59:16;8.85;;;3.95;;
23058;SDS011;30585;51.502;7.218;2023-08-08T05:01:44;11.57;;;4.00;;
23058;SDS011;30585;51.502;7.218;2023-08-08T05:04:11;9.65;;;5.53;;
23058;SDS011;30585;51.502;7.218;2023-08-08T05:06:39;9.30;;;4.90;;
23058;SDS011;30585;51.502;7.218;2023-08-08T05:09:08;10.25;;;5.10;;
23058;SDS011;30585;51.502;7.218;2023-08-08T05:11:36;11.80;;;4.97;;
23058;SDS011;30585;51.502;7.218;2023-08-08T05:14:04;8.20;;;4.93;;
23058;SDS011;30585;51.502;7.218;2023-08-08T05:16:32;12.77;;;5.97;;
23058;SDS011;30585;51.502;7.218;2023-08-08T05:18:59;15.82;;;6.57;;
23058;SDS011;30585;51.502;7.218;2023-08-08T05:21:27;12.48;;;7.55;;
23058;SDS011;30585;51.502;7.218;2023-08-08T05:23:55;12.80;;;5.97;;
23058;SDS011;30585;51.502;7.218;2023-08-08T05:26:24;7.72;;;6.25;;
23058;SDS011;30585;51.502;7.218;2023-08-08T05:28:52;12.57;;;7.22;;
23058;SDS011;30585;51.502;7.218;2023-08-08T05:31:20;12.18;;;7.03;;
23058;SDS011;30585;51.502;7.218;2023-08-08T05:33:47;12.48;;;7.68;;
23058;SDS011;30585;51.502;7.218;2023-08-08T05:36:15;14.20;;;6.50;;
23058;SDS011;30585;51.502;7.218;2023-08-08T05:38:43;11.27;;;8.05;;
23058;SDS011;30585;51.502;7.218;2023-08-08T05:41:11;13.15;;;8.45;;
23058;SDS011;30585;51.502;7.218;2023-08-08T05:43:40;16.85;;;8.52;;
23058;SDS011;30585;51.502;7.218;2023-08-08T05:46:08;15.20;;;8.80;;
23058;SDS011;30585;51.502;7.218;2023-08-08T05:48:36;16.27;;;9.18;;
23058;SDS011;30585;51.502;7.218;2023-08-08T05:51:04;11.55;;;7.85;;
23058;SDS011;30585;51.502;7.218;2023-08-08T05:53:32;9.95;;;7.50;;
23058;SDS011;30585;51.502;7.218;2023-08-08T05:56:00;13.82;;;9.77;;
23058;SDS011;30585;51.502;7.218;2023-08-08T05:58:28;17.85;;;9.50;;
23058;SDS011;30585;51.502;7.218;2023-08-08T06:00:57;14.93;;;10.57;;
23058;SDS011;30585;51.502;7.218;2023-08-08T06:03:25;15.75;;;10.15;;
23058;SDS011;30585;51.502;7.218;2023-08-08T06:05:54;17.38;;;10.73;;
23058;SDS011;30585;51.502;7.218;2023-08-08T06:08:22;17.08;;;10.88;;
23058;SDS011;30585;51.502;7.218;2023-08-08T06:10:50;17.20;;;10.82;;
23058;SDS011;30585;51.502;7.218;2023-08-08T06:13:18;16.42;;;10.88;;
23058;SDS011;30585;51.502;7.218;2023-08-08T06:15:45;16.40;;;11.43;;
23058;SDS011;30585;51.502;7.218;2023-08-08T06:18:15;21.60;;;12.50;;
23058;SDS011;30585;51.502;7.218;2023-08-08T06:20:43;20.17;;;11.32;;
23058;SDS011;30585;51.502;7.218;2023-08-08T06:23:11;19.40;;;13.43;;
23058;SDS011;30585;51.502;7.218;2023-08-08T06:25:41;18.02;;;13.60;;
23058;SDS011;30585;51.502;7.218;2023-08-08T06:28:09;21.65;;;13.88;;
23058;SDS011;30585;51.502;7.218;2023-08-08T06:30:37;22.58;;;12.75;;
23058;SDS011;30585;51.502;7.218;2023-08-08T06:33:05;23.77;;;13.35;;
23058;SDS011;30585;51.502;7.218;2023-08-08T06:35:35;23.60;;;13.13;;
23058;SDS011;30585;51.502;7.218;2023-08-08T06:38:02;31.17;;;13.95;;
23058;SDS011;30585;51.502;7.218;2023-08-08T06:40:31;20.33;;;12.68;;
23058;SDS011;30585;51.502;7.218;2023-08-08T06:42:58;24.52;;;13.82;;
23058;SDS011;30585;51.502;7.218;2023-08-08T06:45:26;17.63;;;12.63;;
23058;SDS011;30585;51.502;7.218;2023-08-08T06:47:54;18.77;;;12.32;;
23058;SDS011;30585;51.502;7.218;2023-08-08T06:50:22;23.95;;;13.50;;
23058;SDS011;30585;51.502;7.218;2023-08-08T06:52:52;25.13;;;13.82;;
23058;SDS011;30585;51.502;7.218;2023-08-08T06:55:20;31.05;;;15.45;;
23058;SDS011;30585;51.502;7.218;2023-08-08T06:57:48;20.10;;;13.52;;
23058;SDS011;30585;51.502;7.218;2023-08-08T07:00:15;18.38;;;12.77;;
23058;SDS011;30585;51.502;7.218;2023-08-08T07:02:43;20.52;;;13.43;;
23058;SDS011;30585;51.502;7.218;2023-08-08T07:05:11;20.70;;;13.38;;
23058;SDS011;30585;51.502;7.218;2023-08-08T07:07:39;22.10;;;13.25;;
23058;SDS011;30585;51.502;7.218;2023-08-08T07:10:08;22.17;;;13.02;;
23058;SDS011;30585;51.502;7.218;2023-08-08T07:12:38;19.10;;;12.88;;
23058;SDS011;30585;51.502;7.218;2023-08-08T07:15:06;25.60;;;13.10;;
23058;SDS011;30585;51.502;7.218;2023-08-08T07:17:35;21.30;;;13.85;;
23058;SDS011;30585;51.502;7.218;2023-08-08T07:20:03;18.70;;;13.43;;
23058;SDS011;30585;51.502;7.218;2023-08-08T07:22:32;21.35;;;13.98;;
23058;SDS011;30585;51.502;7.218;2023-08-08T07:25:00;17.50;;;12.35;;
23058;SDS011;30585;51.502;7.218;2023-08-08T07:27:32;22.50;;;13.77;;
23058;SDS011;30585;51.502;7.218;2023-08-08T07:30:00;22.52;;;14.07;;
23058;SDS011;30585;51.502;7.218;2023-08-08T07:32:29;18.30;;;13.88;;
23058;SDS011;30585;51.502;7.218;2023-08-08T07:34:59;20.55;;;14.52;;
23058;SDS011;30585;51.502;7.218;2023-08-08T07:37:29;19.05;;;14.10;;
23058;SDS011;30585;51.502;7.218;2023-08-08T07:39:57;19.55;;;14.00;;
23058;SDS011;30585;51.502;7.218;2023-08-08T07:42:24;16.15;;;13.82;;
23058;SDS011;30585;51.502;7.218;2023-08-08T07:44:53;17.13;;;14.07;;
23058;SDS011;30585;51.502;7.218;2023-08-08T07:47:21;21.98;;;12.98;;
23058;SDS011;30585;51.502;7.218;2023-08-08T07:49:49;21.67;;;12.73;;
23058;SDS011;30585;51.502;7.218;2023-08-08T07:52:17;17.92;;;11.90;;
23058;SDS011;30585;51.502;7.218;2023-08-08T07:54:45;18.85;;;11.38;;
23058;SDS011;30585;51.502;7.218;2023-08-08T07:57:13;13.95;;;10.88;;
23058;SDS011;30585;51.502;7.218;2023-08-08T07:59:40;14.60;;;10.13;;
23058;SDS011;30585;51.502;7.218;2023-08-08T08:02:10;18.55;;;9.77;;
23058;SDS011;30585;51.502;7.218;2023-08-08T08:04:37;13.70;;;8.85;;
23058;SDS011;30585;51.502;7.218;2023-08-08T08:07:05;11.77;;;8.82;;
23058;SDS011;30585;51.502;7.218;2023-08-08T08:09:34;14.68;;;7.72;;
23058;SDS011;30585;51.502;7.218;2023-08-08T08:12:02;12.30;;;8.38;;
23058;SDS011;30585;51.502;7.218;2023-08-08T08:14:30;9.80;;;7.25;;
23058;SDS011;30585;51.502;7.218;2023-08-08T08:16:58;13.27;;;7.35;;
23058;SDS011;30585;51.502;7.218;2023-08-08T08:19:27;9.60;;;5.85;;
23058;SDS011;30585;51.502;7.218;2023-08-08T08:21:55;8.20;;;5.82;;
23058;SDS011;30585;51.502;7.218;2023-08-08T08:24:24;11.30;;;6.18;;
23058;SDS011;30585;51.502;7.218;2023-08-08T08:26:55;9.65;;;5.55;;
23058;SDS011;30585;51.502;7.218;2023-08-08T08:29:24;10.98;;;6.57;;
23058;SDS011;30585;51.502;7.218;2023-08-08T08:31:51;8.65;;;5.50;;
23058;SDS011;30585;51.502;7.218;2023-08-08T08:34:19;9.38;;;5.88;;
23058;SDS011;30585;51.502;7.218;2023-08-08T08:36:48;8.50;;;5.22;;
23058;SDS011;30585;51.502;7.218;2023-08-08T08:39:16;7.85;;;4.68;;
23058;SDS011;30585;51.502;7.218;2023-08-08T08:41:44;11.25;;;4.80;;
23058;SDS011;30585;51.502;7.218;2023-08-08T08:44:16;8.35;;;4.95;;
23058;SDS011;30585;51.502;7.218;2023-08-08T08:46:44;9.52;;;5.03;;
23058;SDS011;30585;51.502;7.218;2023-08-08T08:49:15;9.23;;;4.15;;
23058;SDS011;30585;51.502;7.218;2023-08-08T08:51:45;10.50;;;4.18;;
23058;SDS011;30585;51.502;7.218;2023-08-08T08:54:15;12.65;;;4.20;;
23058;SDS011;30585;51.502;7.218;2023-08-08T08:56:45;9.07;;;3.67;;
23058;SDS011;30585;51.502;7.218;2023-08-08T08:59:12;10.02;;;3.85;;
23058;SDS011;30585;51.502;7.218;2023-08-08T09:01:40;5.03;;;3.22;;
23058;SDS011;30585;51.502;7.218;2023-08-08T09:04:09;9.50;;;3.72;;
23058;SDS011;30585;51.502;7.218;2023-08-08T09:06:38;9.98;;;3.40;;
23058;SDS011;30585;51.502;7.218;2023-08-08T09:09:06;8.45;;;3.75;;
23058;SDS011;30585;51.502;7.218;2023-08-08T09:11:43;7.38;;;3.38;;
23058;SDS011;30585;51.502;7.218;2023-08-08T09:14:16;5.22;;;2.50;;
23058;SDS011;30585;51.502;7.218;2023-08-08T09:16:45;5.97;;;2.65;;
23058;SDS011;30585;51.502;7.218;2023-08-08T09:19:13;4.30;;;2.45;;
23058;SDS011;30585;51.502;7.218;2023-08-08T09:21:41;5.78;;;2.85;;
23058;SDS011;30585;51.502;7.218;2023-08-08T09:24:09;6.53;;;3.03;;
23058;SDS011;30585;51.502;7.218;2023-08-08T09:26:38;6.47;;;2.78;;
23058;SDS011;30585;51.502;7.218;2023-08-08T09:29:08;3.95;;;2.38;;
23058;SDS011;30585;51.502;7.218;2023-08-08T09:31:37;3.70;;;2.00;;
23058;SDS011;30585;51.502;7.218;2023-08-08T09:34:06;7.93;;;2.45;;
23058;SDS011;30585;51.502;7.218;2023-08-08T09:36:34;8.13;;;2.67;;
23058;SDS011;30585;51.502;7.218;2023-08-08T09:39:03;8.82;;;2.78;;
23058;SDS011;30585;51.502;7.218;2023-08-08T09:41:31;5.57;;;2.50;;
23058;SDS011;30585;51.502;7.218;2023-08-08T09:43:59;6.25;;;2.70;;
23058;SDS011;30585;51.502;7.218;2023-08-08T09:46:30;5.35;;;2.10;;
23058;SDS011;30585;51.502;7.218;2023-08-08T09:48:58;7.13;;;2.70;;
23058;SDS011;30585;51.502;7.218;2023-08-08T09:51:26;6.72;;;1.98;;
23058;SDS011;30585;51.502;7.218;2023-08-08T09:53:55;3.03;;;1.90;;
23058;SDS011;30585;51.502;7.218;2023-08-08T09:56:23;7.15;;;2.67;;
23058;SDS011;30585;51.502;7.218;2023-08-08T09:58:52;6.30;;;2.20;;
23058;SDS011;30585;51.502;7.218;2023-08-08T10:01:20;3.35;;;2.40;;
23058;SDS011;30585;51.502;7.218;2023-08-08T10:03:49;5.55;;;1.95;;
23058;SDS011;30585;51.502;7.218;2023-08-08T10:06:19;5.72;;;2.33;;
23058;SDS011;30585;51.502;7.218;2023-08-08T10:08:47;4.82;;;1.92;;
23058;SDS011;30585;51.502;7.218;2023-08-08T10:11:15;4.28;;;1.85;;
23058;SDS011;30585;51.502;7.218;2023-08-08T10:13:47;6.28;;;2.50;;
23058;SDS011;30585;51.502;7.218;2023-08-08T10:16:15;11.20;;;2.63;;
23058;SDS011;30585;51.502;7.218;2023-08-08T10:18:44;7.97;;;2.40;;
23058;SDS011;30585;51.502;7.218;2023-08-08T10:21:13;4.22;;;2.15;;
23058;SDS011;30585;51.502;7.218;2023-08-08T10:23:41;5.20;;;2.40;;
23058;SDS011;30585;51.502;7.218;2023-08-08T10:26:17;5.47;;;2.25;;
23058;SDS011;30585;51.502;7.218;2023-08-08T10:28:53;5.65;;;2.42;;
23058;SDS011;30585;51.502;7.218;2023-08-08T10:31:25;5.72;;;2.08;;
23058;SDS011;30585;51.502;7.218;2023-08-08T10:34:03;4.47;;;2.30;;
23058;SDS011;30585;51.502;7.218;2023-08-08T10:36:48;5.72;;;2.30;;
23058;SDS011;30585;51.502;7.218;2023-08-08T10:39:18;6.15;;;2.90;;
23058;SDS011;30585;51.502;7.218;2023-08-08T10:41:47;6.55;;;2.47;;
23058;SDS011;30585;51.502;7.218;2023-08-08T10:44:23;5.50;;;2.30;;
23058;SDS011;30585;51.502;7.218;2023-08-08T10:46:52;4.40;;;2.10;;
23058;SDS011;30585;51.502;7.218;2023-08-08T10:49:23;4.95;;;2.72;;
23058;SDS011;30585;51.502;7.218;2023-08-08T10:51:53;8.98;;;2.95;;
23058;SDS011;30585;51.502;7.218;2023-08-08T10:54:22;10.15;;;2.53;;
23058;SDS011;30585;51.502;7.218;2023-08-08T10:56:54;7.35;;;2.53;;
23058;SDS011;30585;51.502;7.218;2023-08-08T10:59:23;6.03;;;2.30;;
23058;SDS011;30585;51.502;7.218;2023-08-08T11:01:53;8.50;;;2.53;;
23058;SDS011;30585;51.502;7.218;2023-08-08T11:04:23;7.57;;;2.45;;
23058;SDS011;30585;51.502;7.218;2023-08-08T11:06:54;5.35;;;2.42;;
23058;SDS011;30585;51.502;7.218;2023-08-08T11:09:22;4.25;;;1.95;;
23058;SDS011;30585;51.502;7.218;2023-08-08T11:11:52;5.10;;;2.42;;
23058;SDS011;30585;51.502;7.218;2023-08-08T11:14:20;6.20;;;2.70;;
23058;SDS011;30585;51.502;7.218;2023-08-08T11:16:50;10.63;;;2.78;;
23058;SDS011;30585;51.502;7.218;2023-08-08T11:19:19;3.17;;;2.00;;
23058;SDS011;30585;51.502;7.218;2023-08-08T11:21:47;5.93;;;2.25;;
23058;SDS011;30585;51.502;7.218;2023-08-08T11:24:17;7.38;;;2.38;;
23058;SDS011;30585;51.502;7.218;2023-08-08T11:26:45;5.70;;;2.53;;
23058;SDS011;30585;51.502;7.218;2023-08-08T11:29:14;6.60;;;2.60;;
23058;SDS011;30585;51.502;7.218;2023-08-08T11:31:42;5.28;;;2.20;;
23058;SDS011;30585;51.502;7.218;2023-08-08T11:34:10;10.63;;;2.60;;
23058;SDS011;30585;51.502;7.218;2023-08-08T11:36:38;4.40;;;2.13;;
23058;SDS011;30585;51.502;7.218;2023-08-08T11:39:07;6.15;;;2.20;;
23058;SDS011;30585;51.502;7.218;2023-08-08T11:41:37;6.03;;;2.30;;
23058;SDS011;30585;51.502;7.218;2023-08-08T11:44:07;5.53;;;1.83;;
23058;SDS011;30585;51.502;7.218;2023-08-08T11:46:35;4.97;;;2.30;;
23058;SDS011;30585;51.502;7.218;2023-08-08T11:49:12;2.10;;;1.60;;
23058;SDS011;30585;51.502;7.218;2023-08-08T11:51:42;4.57;;;1.75;;
23058;SDS011;30585;51.502;7.218;2023-08-08T11:54:12;2.92;;;1.65;;
23058;SDS011;30585;51.502;7.218;2023-08-08T11:56:42;6.68;;;2.38;;
23058;SDS011;30585;51.502;7.218;2023-08-08T11:59:10;2.97;;;1.88;;
23058;SDS011;30585;51.502;7.218;2023-08-08T12:01:38;4.60;;;2.10;;
23058;SDS011;30585;51.502;7.218;2023-08-08T12:04:08;4.15;;;2.10;;
23058;SDS011;30585;51.502;7.218;2023-08-08T12:06:36;2.92;;;1.95;;
23058;SDS011;30585;51.502;7.218;2023-08-08T12:09:06;3.42;;;2.00;;
23058;SDS011;30585;51.502;7.218;2023-08-08T12:11:34;7.43;;;2.45;;
23058;SDS011;30585;51.502;7.218;2023-08-08T12:14:06;6.10;;;2.00;;
23058;SDS011;30585;51.502;7.218;2023-08-08T12:16:37;6.57;;;2.17;;
23058;SDS011;30585;51.502;7.218;2023-08-08T12:19:06;7.78;;;1.83;;
23058;SDS011;30585;51.502;7.218;2023-08-08T12:21:37;4.25;;;1.67;;
23058;SDS011;30585;51.502;7.218;2023-08-08T12:24:05;5.05;;;1.60;;
23058;SDS011;30585;51.502;7.218;2023-08-08T12:26:34;6.05;;;2.03;;
23058;SDS011;30585;51.502;7.218;2023-08-08T12:29:01;5.82;;;1.40;;
23058;SDS011;30585;51.502;7.218;2023-08-08T12:31:31;5.38;;;1.70;;
23058;SDS011;30585;51.502;7.218;2023-08-08T12:33:59;3.22;;;1.75;;
23058;SDS011;30585;51.502;7.218;2023-08-08T12:36:27;6.18;;;2.42;;
23058;SDS011;30585;51.502;7.218;2023-08-08T12:38:55;3.67;;;1.90;;
23058;SDS011;30585;51.502;7.218;2023-08-08T12:41:22;4.55;;;2.20;;
23058;SDS011;30585;51.502;7.218;2023-08-08T12:43:51;6.10;;;2.35;;
23058;SDS011;30585;51.502;7.218;2023-08-08T12:46:19;3.67;;;1.70;;
23058;SDS011;30585;51.502;7.218;2023-08-08T12:48:48;4.45;;;2.08;;
23058;SDS011;30585;51.502;7.218;2023-08-08T12:51:16;4.15;;;2.33;;
23058;SDS011;30585;51.502;7.218;2023-08-08T12:53:44;3.08;;;1.90;;
23058;SDS011;30585;51.502;7.218;2023-08-08T12:56:12;3.92;;;2.17;;
23058;SDS011;30585;51.502;7.218;2023-08-08T12:58:40;6.22;;;2.10;;
23058;SDS011;30585;51.502;7.218;2023-08-08T13:01:08;5.72;;;1.90;;
23058;SDS011;30585;51.502;7.218;2023-08-08T13:03:35;5.50;;;2.15;;
23058;SDS011;30585;51.502;7.218;2023-08-08T13:06:05;3.45;;;1.85;;
23058;SDS011;30585;51.502;7.218;2023-08-08T13:08:33;4.22;;;2.30;;
23058;SDS011;30585;51.502;7.218;2023-08-08T13:11:02;4.45;;;1.95;;
23058;SDS011;30585;51.502;7.218;2023-08-08T13:13:30;5.22;;;2.15;;
23058;SDS011;30585;51.502;7.218;2023-08-08T13:15:57;4.53;;;2.13;;
23058;SDS011;30585;51.502;7.218;2023-08-08T13:18:25;5.70;;;2.50;;
23058;SDS011;30585;51.502;7.218;2023-08-08T13:20:53;3.40;;;2.30;;
23058;SDS011;30585;51.502;7.218;2023-08-08T13:23:22;6.82;;;2.50;;
23058;SDS011;30585;51.502;7.218;2023-08-08T13:25:51;6.80;;;2.50;;
23058;SDS011;30585;51.502;7.218;2023-08-08T13:28:19;6.20;;;2.80;;
23058;SDS011;30585;51.502;7.218;2023-08-08T13:30:48;7.35;;;2.72;;
23058;SDS011;30585;51.502;7.218;2023-08-08T13:33:15;6.00;;;2.58;;
23058;SDS011;30585;51.502;7.218;2023-08-08T13:35:43;5.80;;;2.30;;
23058;SDS011;30585;51.502;7.218;2023-08-08T13:38:11;4.97;;;2.13;;
23058;SDS011;30585;51.502;7.218;2023-08-08T13:40:42;2.83;;;2.30;;
23058;SDS011;30585;51.502;7.218;2023-08-08T13:43:11;4.97;;;1.92;;
23058;SDS011;30585;51.502;7.218;2023-08-08T13:45:39;4.07;;;2.08;;
23058;SDS011;30585;51.502;7.218;2023-08-08T13:48:06;4.93;;;2.05;;
23058;SDS011;30585;51.502;7.218;2023-08-08T13:50:34;2.88;;;2.03;;
23058;SDS011;30585;51.502;7.218;2023-08-08T13:53:02;6.60;;;2.25;;
23058;SDS011;30585;51.502;7.218;2023-08-08T13:55:31;4.30;;;2.03;;
23058;SDS011;30585;51.502;7.218;2023-08-08T13:58:07;5.15;;;1.85;;
23058;SDS011;30585;51.502;7.218;2023-08-08T14:00:35;3.75;;;1.67;;
23058;SDS011;30585;51.502;7.218;2023-08-08T14:03:03;4.95;;;2.40;;
23058;SDS011;30585;51.502;7.218;2023-08-08T14:05:31;3.15;;;1.85;;
23058;SDS011;30585;51.502;7.218;2023-08-08T14:07:59;4.20;;;2.28;;
23058;SDS011;30585;51.502;7.218;2023-08-08T14:10:27;4.55;;;1.80;;
23058;SDS011;30585;51.502;7.218;2023-08-08T14:12:55;3.83;;;1.90;;
23058;SDS011;30585;51.502;7.218;2023-08-08T14:15:25;3.15;;;1.77;;
23058;SDS011;30585;51.502;7.218;2023-08-08T14:17:53;3.15;;;1.65;;
23058;SDS011;30585;51.502;7.218;2023-08-08T14:20:21;2.10;;;1.65;;
23058;SDS011;30585;51.502;7.218;2023-08-08T14:22:49;6.75;;;1.77;;
23058;SDS011;30585;51.502;7.218;2023-08-08T14:25:16;3.33;;;1.98;;
23058;SDS011;30585;51.502;7.218;2023-08-08T14:27:44;2.80;;;1.67;;
23058;SDS011;30585;51.502;7.218;2023-08-08T14:30:12;2.85;;;1.75;;
23058;SDS011;30585;51.502;7.218;2023-08-08T14:32:41;4.53;;;1.90;;
23058;SDS011;30585;51.502;7.218;2023-08-08T14:35:09;4.75;;;1.65;;
23058;SDS011;30585;51.502;7.218;2023-08-08T14:37:38;3.90;;;1.85;;
23058;SDS011;30585;51.502;7.218;2023-08-08T14:40:07;3.28;;;1.52;;
23058;SDS011;30585;51.502;7.218;2023-08-08T14:42:35;6.47;;;2.28;;
23058;SDS011;30585;51.502;7.218;2023-08-08T14:45:04;5.15;;;2.03;;
23058;SDS011;30585;51.502;7.218;2023-08-08T14:47:32;3.28;;;1.85;;
23058;SDS011;30585;51.502;7.218;2023-08-08T14:50:01;5.57;;;2.20;;
23058;SDS011;30585;51.502;7.218;2023-08-08T14:52:30;3.38;;;2.03;;